createdAt,value
2022-12-31T00:01:33.041Z,4.97
2022-12-31T00:03:55.814Z,4.98
2022-12-31T00:06:28.671Z,4.98
2022-12-31T00:08:52.104Z,5.00
2022-12-31T00:11:14.586Z,4.96
2022-12-31T00:13:37.437Z,4.95
2022-12-31T00:16:29.214Z,4.96
2022-12-31T00:18:54.559Z,4.96
2022-12-31T00:21:17.585Z,4.95
2022-12-31T00:23:40.063Z,4.97
2022-12-31T00:26:13.814Z,4.98
2022-12-31T00:28:36.589Z,4.96
2022-12-31T00:31:08.884Z,4.99
2022-12-31T00:33:31.273Z,4.99
2022-12-31T00:35:53.664Z,5.00
2022-12-31T00:38:16.050Z,5.01
2022-12-31T00:40:38.431Z,5.03
2022-12-31T00:43:00.813Z,5.05
2022-12-31T00:45:23.233Z,5.06
2022-12-31T00:47:45.583Z,5.08
2022-12-31T00:50:08.595Z,5.13
2022-12-31T00:52:30.994Z,5.14
2022-12-31T00:54:53.331Z,5.14
2022-12-31T00:57:15.737Z,5.15
2022-12-31T00:59:38.074Z,5.17
2022-12-31T01:02:00.574Z,5.18
2022-12-31T01:04:23.056Z,5.20
2022-12-31T01:06:45.546Z,5.22
2022-12-31T01:09:08.089Z,5.22
2022-12-31T01:11:30.684Z,5.24
2022-12-31T01:14:05.315Z,5.26
2022-12-31T01:16:54.226Z,5.32
2022-12-31T01:19:25.055Z,5.37
2022-12-31T01:21:49.377Z,5.44
2022-12-31T01:24:11.960Z,5.50
2022-12-31T01:26:34.416Z,5.53
2022-12-31T01:28:56.828Z,5.58
2022-12-31T01:31:22.714Z,5.63
2022-12-31T01:33:45.678Z,5.70
2022-12-31T01:36:21.852Z,5.72
2022-12-31T01:38:47.847Z,5.78
2022-12-31T01:41:15.305Z,5.80
2022-12-31T01:44:09.334Z,5.85
2022-12-31T01:46:54.396Z,5.89
2022-12-31T01:49:58.339Z,5.91
2022-12-31T01:52:41.918Z,5.94
2022-12-31T01:55:23.156Z,6.00
2022-12-31T01:57:46.958Z,6.06
2022-12-31T02:00:10.092Z,6.12
2022-12-31T02:02:32.646Z,6.19
2022-12-31T02:04:56.304Z,6.29
2022-12-31T02:07:18.672Z,6.37
2022-12-31T02:09:41.318Z,6.43
2022-12-31T02:12:04.140Z,6.53
2022-12-31T02:14:30.238Z,6.61
2022-12-31T02:17:10.539Z,6.65
2022-12-31T02:20:29.021Z,6.70
2022-12-31T02:23:00.373Z,6.77
2022-12-31T02:26:04.934Z,6.83
2022-12-31T02:29:16.115Z,6.90
2022-12-31T02:31:59.011Z,6.93
2022-12-31T02:34:37.535Z,6.95
2022-12-31T02:37:00.985Z,7.00
2022-12-31T02:39:23.330Z,7.00
2022-12-31T02:41:52.665Z,7.03
2022-12-31T02:44:35.572Z,7.04
2022-12-31T02:47:34.951Z,7.03
2022-12-31T02:50:35.059Z,7.04
2022-12-31T02:53:37.076Z,6.98
2022-12-31T02:56:52.537Z,6.93
2022-12-31T02:59:44.764Z,6.95
2022-12-31T03:02:16.692Z,6.91
2022-12-31T03:04:39.309Z,6.93
2022-12-31T03:07:13.905Z,6.91
2022-12-31T03:09:36.582Z,6.91
2022-12-31T03:12:17.558Z,6.91
2022-12-31T03:14:39.951Z,6.93
2022-12-31T03:17:02.314Z,6.92
2022-12-31T03:19:43.457Z,6.94
2022-12-31T03:22:24.529Z,6.95
2022-12-31T03:25:05.505Z,6.97
2022-12-31T03:27:27.847Z,6.96
2022-12-31T03:29:50.199Z,6.94
2022-12-31T03:32:12.546Z,6.96
2022-12-31T03:34:34.884Z,7.01
2022-12-31T03:36:57.258Z,7.03
2022-12-31T03:39:19.617Z,7.04
2022-12-31T03:41:41.938Z,7.05
2022-12-31T03:44:04.384Z,7.04
2022-12-31T03:46:26.710Z,7.06
2022-12-31T03:48:49.077Z,7.08
2022-12-31T03:51:11.447Z,7.06
2022-12-31T03:53:35.734Z,7.06
2022-12-31T03:55:58.133Z,7.07
2022-12-31T03:58:20.868Z,7.08
2022-12-31T04:00:43.241Z,7.10
2022-12-31T04:03:05.687Z,7.10
2022-12-31T04:05:28.109Z,7.10
2022-12-31T04:07:52.190Z,7.11
2022-12-31T04:10:16.305Z,7.10
2022-12-31T04:12:39.058Z,7.11
2022-12-31T04:15:01.426Z,7.16
2022-12-31T04:17:23.916Z,7.15
2022-12-31T04:19:46.288Z,7.18
2022-12-31T04:22:08.639Z,7.20
2022-12-31T04:24:31.229Z,7.20
2022-12-31T04:26:53.591Z,7.20
2022-12-31T04:29:15.949Z,7.21
2022-12-31T04:31:38.363Z,7.25
2022-12-31T04:34:00.737Z,7.24
2022-12-31T04:36:23.131Z,7.29
2022-12-31T04:38:45.469Z,7.29
2022-12-31T04:41:17.043Z,7.33
2022-12-31T04:43:39.384Z,7.37
2022-12-31T04:46:01.788Z,7.39
2022-12-31T04:48:24.186Z,7.41
2022-12-31T04:50:46.970Z,7.44
2022-12-31T04:53:09.343Z,7.43
2022-12-31T04:55:31.686Z,7.46
2022-12-31T04:57:54.045Z,7.47
2022-12-31T05:00:16.618Z,7.49
2022-12-31T05:02:39.264Z,7.50
2022-12-31T05:05:01.761Z,7.54
2022-12-31T05:07:24.185Z,7.60
2022-12-31T05:09:46.607Z,7.61
2022-12-31T05:12:08.974Z,7.64
2022-12-31T05:14:31.350Z,7.66
2022-12-31T05:16:53.849Z,7.69
2022-12-31T05:19:16.284Z,7.71
2022-12-31T05:21:38.674Z,7.75
2022-12-31T05:24:01.033Z,7.77
2022-12-31T05:26:23.391Z,7.81
2022-12-31T05:28:45.772Z,7.80
2022-12-31T05:31:08.255Z,7.88
2022-12-31T05:33:30.643Z,7.89
2022-12-31T05:35:52.972Z,7.94
2022-12-31T05:38:15.304Z,7.95
2022-12-31T05:40:37.656Z,7.96
2022-12-31T05:43:00.004Z,8.00
2022-12-31T05:45:28.395Z,8.02
2022-12-31T05:47:53.002Z,8.05
2022-12-31T05:50:15.802Z,8.08
2022-12-31T05:52:38.871Z,8.11
2022-12-31T05:55:01.277Z,8.11
2022-12-31T05:57:23.614Z,8.13
2022-12-31T05:59:45.959Z,8.14
2022-12-31T06:02:08.339Z,8.16
2022-12-31T06:04:30.673Z,8.18
2022-12-31T06:06:53.087Z,8.21
2022-12-31T06:09:16.887Z,8.24
2022-12-31T06:11:39.261Z,8.26
2022-12-31T06:14:01.673Z,8.27
2022-12-31T06:16:24.344Z,8.28
2022-12-31T06:18:50.901Z,8.31
2022-12-31T06:21:13.243Z,8.37
2022-12-31T06:23:35.598Z,8.40
2022-12-31T06:26:02.131Z,8.39
2022-12-31T06:28:24.531Z,8.37
2022-12-31T06:30:47.375Z,8.43
2022-12-31T06:33:09.777Z,8.44
2022-12-31T06:35:32.200Z,8.44
2022-12-31T06:37:54.582Z,8.45
2022-12-31T06:40:16.977Z,8.44
2022-12-31T06:42:39.364Z,8.45
2022-12-31T06:45:01.827Z,8.43
2022-12-31T06:47:24.706Z,8.42
2022-12-31T06:49:47.107Z,8.42
2022-12-31T06:52:09.447Z,8.45
2022-12-31T06:54:32.042Z,8.44
2022-12-31T06:56:54.833Z,8.46
2022-12-31T06:59:28.859Z,8.46
2022-12-31T07:02:27.436Z,8.41
2022-12-31T07:05:27.186Z,8.37
2022-12-31T07:08:37.554Z,8.33
2022-12-31T07:11:10.033Z,8.30
2022-12-31T07:14:02.657Z,8.27
2022-12-31T07:16:40.220Z,8.25
2022-12-31T07:19:24.396Z,8.24
2022-12-31T07:21:46.826Z,8.23
2022-12-31T07:24:10.534Z,8.25
2022-12-31T07:26:56.169Z,8.24
2022-12-31T07:29:24.602Z,8.24
2022-12-31T07:32:34.638Z,8.26
2022-12-31T07:35:45.571Z,8.29
2022-12-31T07:38:16.674Z,8.34
2022-12-31T07:40:46.335Z,8.35
2022-12-31T07:43:23.080Z,8.38
2022-12-31T07:46:13.941Z,8.41
2022-12-31T07:48:36.639Z,8.42
2022-12-31T07:50:59.390Z,8.44
2022-12-31T07:53:25.590Z,8.46
2022-12-31T07:55:50.379Z,8.47
2022-12-31T07:58:24.243Z,8.50
2022-12-31T08:00:46.676Z,8.53
2022-12-31T08:03:10.248Z,8.55
2022-12-31T08:05:33.360Z,8.59
2022-12-31T08:07:57.816Z,8.63
2022-12-31T08:10:39.338Z,8.66
2022-12-31T08:12:42.238Z,8.65
2022-12-31T08:14:46.976Z,8.71
2022-12-31T08:16:50.611Z,8.74
2022-12-31T08:18:53.462Z,8.75
2022-12-31T08:21:15.034Z,8.78
2022-12-31T08:23:35.421Z,8.79
2022-12-31T08:26:20.850Z,8.80
2022-12-31T08:28:51.196Z,8.84
2022-12-31T08:31:37.666Z,8.85
2022-12-31T08:34:20.825Z,8.90
2022-12-31T08:36:29.446Z,8.93
2022-12-31T08:39:02.243Z,8.98
2022-12-31T08:41:24.322Z,9.03
2022-12-31T08:43:38.372Z,9.05
2022-12-31T08:45:50.087Z,9.08
2022-12-31T08:48:34.372Z,9.11
2022-12-31T08:50:37.885Z,9.15
2022-12-31T08:52:40.855Z,9.16
2022-12-31T08:54:44.195Z,9.19
2022-12-31T08:57:16.140Z,9.21
2022-12-31T08:59:36.854Z,9.25
2022-12-31T09:02:08.808Z,9.27
2022-12-31T09:04:20.044Z,9.33
2022-12-31T09:06:43.922Z,9.36
2022-12-31T09:09:36.406Z,9.40
2022-12-31T09:12:11.953Z,9.45
2022-12-31T09:14:50.138Z,9.45
2022-12-31T09:17:19.873Z,9.49
2022-12-31T09:19:22.321Z,9.54
2022-12-31T09:21:24.967Z,9.55
2022-12-31T09:23:28.023Z,9.58
2022-12-31T09:25:31.559Z,9.62
2022-12-31T09:27:50.189Z,9.70
2022-12-31T09:30:03.728Z,9.73
2022-12-31T09:32:17.774Z,9.75
2022-12-31T09:34:51.119Z,9.74
2022-12-31T09:37:19.546Z,9.72
2022-12-31T09:39:45.555Z,9.69
2022-12-31T09:42:12.013Z,9.63
2022-12-31T09:44:43.443Z,9.55
2022-12-31T09:47:06.663Z,9.47
2022-12-31T09:49:36.821Z,9.45
2022-12-31T09:51:58.448Z,9.39
2022-12-31T09:54:19.407Z,9.32
2022-12-31T09:56:36.580Z,9.29
2022-12-31T09:58:46.035Z,9.30
2022-12-31T10:00:57.957Z,9.24
2022-12-31T10:03:37.817Z,9.29
2022-12-31T10:05:53.312Z,9.32
2022-12-31T10:08:01.084Z,9.34
2022-12-31T10:10:20.738Z,9.37
2022-12-31T10:12:56.874Z,9.41
2022-12-31T10:15:40.079Z,9.44
2022-12-31T10:18:12.855Z,9.48
2022-12-31T10:20:30.955Z,9.47
2022-12-31T10:23:36.941Z,9.48
2022-12-31T10:26:04.953Z,9.48
2022-12-31T10:28:45.840Z,9.49
2022-12-31T10:31:13.118Z,9.56
2022-12-31T10:33:37.013Z,9.62
2022-12-31T10:35:45.991Z,9.61
2022-12-31T10:38:12.219Z,9.66
2022-12-31T10:40:44.119Z,9.71
2022-12-31T10:43:07.822Z,9.74
2022-12-31T10:45:49.820Z,9.78
2022-12-31T10:48:13.098Z,9.84
2022-12-31T10:51:12.342Z,9.92
2022-12-31T10:53:58.322Z,9.97
2022-12-31T10:56:48.631Z,10.04
2022-12-31T10:59:17.614Z,10.12
2022-12-31T11:01:28.790Z,10.21
2022-12-31T11:03:55.941Z,10.23
2022-12-31T11:06:30.894Z,10.28
2022-12-31T11:09:10.631Z,10.34
2022-12-31T11:11:45.756Z,10.43
2022-12-31T11:14:31.626Z,10.51
2022-12-31T11:16:44.414Z,10.58
2022-12-31T11:19:24.570Z,10.63
2022-12-31T11:21:41.404Z,10.70
2022-12-31T11:24:04.207Z,10.78
2022-12-31T11:26:34.125Z,10.84
2022-12-31T11:28:36.958Z,10.90
2022-12-31T11:31:14.245Z,10.98
2022-12-31T11:34:12.700Z,11.06
2022-12-31T11:37:10.835Z,11.19
2022-12-31T11:40:01.256Z,11.28
2022-12-31T11:42:59.083Z,11.37
2022-12-31T11:45:11.369Z,11.41
2022-12-31T11:50:42.741Z,11.60
2022-12-31T11:52:59.965Z,11.70
2022-12-31T11:55:12.744Z,11.82
2022-12-31T11:57:36.784Z,11.91
2022-12-31T11:59:39.046Z,12.02
2022-12-31T12:02:00.923Z,12.09
2022-12-31T12:04:03.212Z,12.14
2022-12-31T12:06:05.969Z,12.19
2022-12-31T12:08:08.019Z,12.20
2022-12-31T12:10:36.476Z,12.26
2022-12-31T12:12:43.409Z,12.33
2022-12-31T12:14:49.164Z,12.38
2022-12-31T12:17:04.276Z,12.39
2022-12-31T12:19:14.672Z,12.46
2022-12-31T12:21:24.068Z,12.53
2022-12-31T12:23:28.127Z,12.57
2022-12-31T12:25:40.350Z,12.63
2022-12-31T12:27:42.824Z,12.72
2022-12-31T12:29:45.480Z,12.76
2022-12-31T12:32:02.416Z,12.81
2022-12-31T12:34:06.792Z,12.83
2022-12-31T12:36:15.457Z,12.90
2022-12-31T12:38:23.286Z,12.92
2022-12-31T12:40:33.407Z,12.95
2022-12-31T12:42:50.580Z,12.96
2022-12-31T12:45:07.385Z,13.01
2022-12-31T12:47:15.567Z,13.06
2022-12-31T12:49:24.658Z,13.10
2022-12-31T12:51:56.544Z,13.17
2022-12-31T12:54:17.251Z,13.24
2022-12-31T12:56:42.476Z,13.30
2022-12-31T12:59:24.951Z,13.34
2022-12-31T13:01:56.144Z,13.42
2022-12-31T13:05:05.071Z,13.50
2022-12-31T13:08:20.335Z,13.60
2022-12-31T13:11:00.427Z,13.70
2022-12-31T13:13:32.233Z,13.76
2022-12-31T13:16:00.633Z,13.79
2022-12-31T13:18:47.595Z,13.81
2022-12-31T13:21:32.946Z,13.85
2022-12-31T13:24:46.344Z,13.90
2022-12-31T13:27:10.003Z,13.90
2022-12-31T13:29:22.626Z,13.93
2022-12-31T13:31:30.926Z,13.99
2022-12-31T13:33:39.346Z,14.05
2022-12-31T13:35:56.845Z,14.03
2022-12-31T13:38:48.875Z,14.07
2022-12-31T13:40:57.567Z,14.07
2022-12-31T13:43:08.640Z,14.09
2022-12-31T13:45:16.811Z,14.07
2022-12-31T13:47:40.927Z,14.09
2022-12-31T13:49:57.715Z,14.14
2022-12-31T13:52:33.660Z,14.12
2022-12-31T13:54:45.776Z,14.11
2022-12-31T13:56:48.431Z,14.11
2022-12-31T13:59:10.399Z,14.08
2022-12-31T14:01:33.841Z,14.06
2022-12-31T14:03:54.618Z,14.03
2022-12-31T14:06:03.555Z,14.02
2022-12-31T14:08:06.585Z,13.98
2022-12-31T14:10:16.153Z,13.95
2022-12-31T14:13:07.635Z,13.87
2022-12-31T14:15:41.735Z,13.85
2022-12-31T14:18:06.932Z,13.82
2022-12-31T14:20:39.734Z,13.81
2022-12-31T14:22:54.365Z,13.81
2022-12-31T14:24:57.505Z,13.79
2022-12-31T14:27:03.726Z,13.77
2022-12-31T14:29:11.153Z,13.77
2022-12-31T14:31:37.973Z,13.73
2022-12-31T14:34:02.419Z,13.72
2022-12-31T14:36:55.444Z,13.68
2022-12-31T14:39:17.223Z,13.67
2022-12-31T14:41:22.519Z,13.65
2022-12-31T14:43:47.909Z,13.65
2022-12-31T14:47:04.917Z,13.63
2022-12-31T14:49:51.988Z,13.63
2022-12-31T14:51:54.668Z,13.63
2022-12-31T14:53:57.768Z,13.61
2022-12-31T14:56:06.290Z,13.56
2022-12-31T14:58:37.051Z,13.59
2022-12-31T15:00:40.118Z,13.59
2022-12-31T15:02:53.115Z,13.59
2022-12-31T15:05:12.039Z,13.57
2022-12-31T15:07:26.634Z,13.58
2022-12-31T15:09:54.465Z,13.59
2022-12-31T15:12:03.640Z,13.62
2022-12-31T15:14:28.218Z,13.61
2022-12-31T15:16:44.425Z,13.64
2022-12-31T15:19:12.265Z,13.63
2022-12-31T15:22:09.483Z,13.63
2022-12-31T15:24:22.855Z,13.57
2022-12-31T15:26:32.557Z,13.54
2022-12-31T15:28:39.781Z,13.54
2022-12-31T15:30:47.388Z,13.47
2022-12-31T15:32:49.792Z,13.49
2022-12-31T15:35:27.041Z,13.43
2022-12-31T15:37:36.918Z,13.43
2022-12-31T15:39:41.755Z,13.40
2022-12-31T15:42:35.496Z,13.41
2022-12-31T15:45:18.925Z,13.35
2022-12-31T15:47:57.942Z,13.36
2022-12-31T15:50:04.856Z,13.35
2022-12-31T15:52:13.613Z,13.40
2022-12-31T15:54:49.753Z,13.40
2022-12-31T15:56:52.539Z,13.45
2022-12-31T15:58:59.365Z,13.43
2022-12-31T16:01:29.105Z,13.48
2022-12-31T16:03:31.620Z,13.58
2022-12-31T16:05:35.317Z,13.59
2022-12-31T16:07:38.610Z,13.61
2022-12-31T16:09:41.578Z,13.59
2022-12-31T16:11:44.662Z,13.60
2022-12-31T16:13:49.940Z,13.65
2022-12-31T16:15:59.173Z,13.67
2022-12-31T16:18:22.383Z,13.66
2022-12-31T16:20:30.235Z,13.70
2022-12-31T16:22:39.929Z,13.67
2022-12-31T16:25:19.590Z,13.72
2022-12-31T16:27:12.577Z,13.69
2022-12-31T16:29:16.667Z,13.70
2022-12-31T16:31:20.123Z,13.72
2022-12-31T16:33:22.446Z,13.77
2022-12-31T16:35:38.000Z,13.77
2022-12-31T16:37:40.731Z,13.81
2022-12-31T16:40:29.944Z,13.78
2022-12-31T16:42:32.769Z,13.83
2022-12-31T16:44:35.361Z,13.85
2022-12-31T16:46:38.040Z,13.96
2022-12-31T16:48:41.427Z,14.06
2022-12-31T16:50:49.897Z,14.12
2022-12-31T16:53:03.088Z,14.16
2022-12-31T16:55:18.438Z,14.19
2022-12-31T16:57:24.487Z,14.21
2022-12-31T16:59:45.714Z,14.19
2022-12-31T17:01:48.007Z,14.23
2022-12-31T17:03:54.117Z,14.23
2022-12-31T17:06:12.739Z,14.25
2022-12-31T17:08:23.919Z,14.19
2022-12-31T17:10:34.242Z,14.23
2022-12-31T17:15:25.416Z,14.24
2022-12-31T17:17:28.301Z,14.23
2022-12-31T17:19:43.303Z,14.23
2022-12-31T17:21:47.351Z,14.23
2022-12-31T17:23:54.758Z,14.25
2022-12-31T17:26:00.710Z,14.23
2022-12-31T17:28:24.209Z,14.30
2022-12-31T17:30:32.840Z,14.22
2022-12-31T17:32:37.913Z,14.23
2022-12-31T17:34:49.502Z,14.18
2022-12-31T17:37:07.914Z,14.17
2022-12-31T17:39:21.141Z,14.13
2022-12-31T17:41:27.149Z,14.06
2022-12-31T17:43:34.867Z,14.04
2022-12-31T17:45:38.123Z,14.04
2022-12-31T17:47:45.167Z,14.02
2022-12-31T17:49:48.136Z,13.98
2022-12-31T17:51:50.714Z,14.02
2022-12-31T17:53:53.282Z,14.03
2022-12-31T17:55:57.064Z,14.02
2022-12-31T17:57:59.866Z,14.04
2022-12-31T18:00:16.939Z,14.01
2022-12-31T18:02:20.173Z,13.98
2022-12-31T18:04:22.587Z,13.98
2022-12-31T18:06:26.766Z,13.95
2022-12-31T18:08:29.464Z,13.93
2022-12-31T18:10:36.548Z,13.94
2022-12-31T18:12:38.886Z,13.90
2022-12-31T18:14:42.067Z,13.87
2022-12-31T18:16:44.541Z,13.86
2022-12-31T18:18:47.462Z,13.87
2022-12-31T18:20:55.325Z,13.84
2022-12-31T18:22:58.211Z,13.78
2022-12-31T18:25:00.931Z,13.79
2022-12-31T18:27:03.682Z,13.78
2022-12-31T18:29:15.657Z,13.73
2022-12-31T18:31:27.280Z,13.72
2022-12-31T18:33:29.518Z,13.72
2022-12-31T18:37:53.770Z,13.67
2022-12-31T18:39:56.902Z,13.65
2022-12-31T18:41:59.504Z,13.62
2022-12-31T18:44:20.496Z,13.62
2022-12-31T18:46:41.140Z,13.66
2022-12-31T18:49:04.248Z,13.65
2022-12-31T18:51:32.005Z,13.66
2022-12-31T18:53:54.831Z,13.66
2022-12-31T18:56:19.529Z,13.66
2022-12-31T18:58:41.988Z,13.69
2022-12-31T19:01:04.662Z,13.69
2022-12-31T19:03:28.375Z,13.74
2022-12-31T19:05:51.420Z,13.73
2022-12-31T19:08:13.861Z,13.76
2022-12-31T19:10:36.252Z,13.80
2022-12-31T19:12:58.668Z,13.77
2022-12-31T19:15:35.761Z,13.82
2022-12-31T19:17:58.169Z,13.83
2022-12-31T19:20:20.606Z,13.87
2022-12-31T19:22:43.060Z,13.91
2022-12-31T19:25:22.318Z,13.90
2022-12-31T19:27:44.801Z,13.90
2022-12-31T19:30:13.848Z,13.90
2022-12-31T19:32:36.210Z,13.92
2022-12-31T19:34:58.626Z,13.92
2022-12-31T19:37:21.000Z,13.97
2022-12-31T19:39:43.380Z,13.93
2022-12-31T19:42:05.747Z,13.97
2022-12-31T19:44:28.108Z,14.02
2022-12-31T19:46:50.531Z,14.00
2022-12-31T19:49:16.080Z,14.05
2022-12-31T19:51:38.564Z,14.03
2022-12-31T19:54:00.988Z,14.07
2022-12-31T19:56:23.411Z,14.07
2022-12-31T19:58:45.845Z,14.06
2022-12-31T20:01:09.449Z,14.05
2022-12-31T20:03:32.943Z,14.05
2022-12-31T20:06:21.737Z,14.04
2022-12-31T20:08:44.160Z,14.07
2022-12-31T20:11:20.230Z,14.07
2022-12-31T20:13:42.817Z,14.06
2022-12-31T20:16:17.589Z,14.08
2022-12-31T20:18:41.057Z,14.11
2022-12-31T20:21:03.448Z,14.07
2022-12-31T20:23:25.828Z,14.06
2022-12-31T20:25:58.209Z,14.08
2022-12-31T20:28:20.610Z,14.05
2022-12-31T20:30:43.145Z,14.03
2022-12-31T20:33:05.581Z,14.05
2022-12-31T20:35:27.950Z,13.99
2022-12-31T20:37:50.306Z,13.99
2022-12-31T20:40:13.021Z,13.95
2022-12-31T20:42:39.923Z,13.93
2022-12-31T20:45:02.287Z,13.97
2022-12-31T20:47:24.723Z,13.93
2022-12-31T20:50:10.383Z,13.94
2022-12-31T20:52:29.417Z,13.94
2022-12-31T20:54:51.783Z,13.99
2022-12-31T20:57:14.173Z,14.00
2022-12-31T20:59:36.577Z,13.98
2022-12-31T21:04:41.907Z,14.00
2022-12-31T21:07:04.475Z,14.07
2022-12-31T21:09:26.875Z,14.11
2022-12-31T21:12:07.642Z,14.25
2022-12-31T21:14:30.013Z,14.30
2022-12-31T21:16:52.495Z,14.37
2022-12-31T21:19:14.908Z,14.42
2022-12-31T21:21:37.546Z,14.53
2022-12-31T21:23:59.999Z,14.61
2022-12-31T21:26:22.334Z,14.59
2022-12-31T21:28:44.782Z,14.61
2022-12-31T21:31:08.001Z,14.66
2022-12-31T21:33:30.528Z,14.66
2022-12-31T21:35:54.030Z,14.70
2022-12-31T21:38:17.162Z,14.73
2022-12-31T21:40:39.499Z,14.78
2022-12-31T21:43:01.950Z,14.79
2022-12-31T21:45:24.467Z,14.81
2022-12-31T21:48:05.643Z,14.85
2022-12-31T21:50:28.036Z,14.84
2022-12-31T21:52:50.434Z,14.89
2022-12-31T21:55:31.769Z,14.87
2022-12-31T22:00:55.019Z,14.97
2022-12-31T22:03:29.800Z,14.95
2022-12-31T22:06:03.162Z,15.01
2022-12-31T22:08:25.788Z,15.02
2022-12-31T22:10:52.467Z,15.07
2022-12-31T22:13:15.492Z,15.05
2022-12-31T22:15:37.949Z,15.14
2022-12-31T22:18:00.399Z,15.13
2022-12-31T22:20:28.566Z,15.11
2022-12-31T22:22:51.206Z,15.11
2022-12-31T22:25:13.628Z,15.12
2022-12-31T22:27:36.069Z,15.13
2022-12-31T22:29:58.430Z,15.12
2022-12-31T22:32:20.803Z,15.16
2022-12-31T22:34:43.162Z,15.12
2022-12-31T22:37:27.493Z,15.08
2022-12-31T22:39:47.969Z,15.12
2022-12-31T22:42:10.336Z,15.17
2022-12-31T22:44:32.760Z,15.13
2022-12-31T22:46:56.326Z,15.11
2022-12-31T22:49:20.186Z,15.09
2022-12-31T22:51:55.188Z,15.07
2022-12-31T22:54:19.831Z,15.03
2022-12-31T22:56:42.423Z,15.02
2022-12-31T22:59:04.859Z,14.98
2022-12-31T23:01:27.268Z,14.97
2022-12-31T23:03:51.964Z,14.92
2022-12-31T23:06:14.659Z,14.87
2022-12-31T23:08:37.049Z,14.83
2022-12-31T23:10:59.814Z,14.76
2022-12-31T23:13:45.895Z,14.71
2022-12-31T23:16:30.910Z,14.65
2022-12-31T23:19:11.921Z,14.57
2022-12-31T23:21:52.906Z,14.46
2022-12-31T23:24:21.416Z,14.32
2022-12-31T23:26:46.940Z,14.21
2022-12-31T23:29:09.280Z,14.09
2022-12-31T23:31:31.746Z,14.03
2022-12-31T23:33:57.289Z,13.93
2022-12-31T23:36:19.627Z,13.83
2022-12-31T23:38:42.043Z,13.74
2022-12-31T23:41:15.212Z,13.62
2022-12-31T23:43:37.568Z,13.56
2022-12-31T23:45:59.913Z,13.50
2022-12-31T23:48:22.319Z,13.44
2022-12-31T23:50:50.841Z,13.40
2022-12-31T23:53:15.262Z,13.35
2022-12-31T23:55:37.617Z,13.31
2022-12-31T23:57:59.949Z,13.27
